sensor_id;sensor_type;location;lat;lon;timestamp;temperature;humidity
14475;DHT22;7323;50.848;4.334;2022-09-09T00:01:08;16.60;97.40
14475;DHT22;7323;50.848;4.334;2022-09-09T00:09:46;16.50;96.70
14475;DHT22;7323;50.848;4.334;2022-09-09T00:15:24;16.50;97.10
14475;DHT22;7323;50.848;4.334;2022-09-09T00:21:20;16.50;97.90
14475;DHT22;7323;50.848;4.334;2022-09-09T00:23:55;16.50;97.50
14475;DHT22;7323;50.848;4.334;2022-09-09T00:26:40;16.50;97.40
14475;DHT22;7323;50.848;4.334;2022-09-09T00:33:03;16.40;98.40
14475;DHT22;7323;50.848;4.334;2022-09-09T00:38:55;16.50;98.60
14475;DHT22;7323;50.848;4.334;2022-09-09T00:44:34;16.60;97.90
14475;DHT22;7323;50.848;4.334;2022-09-09T00:50:36;16.60;98.00
14475;DHT22;7323;50.848;4.334;2022-09-09T00:59:52;16.60;97.40
14475;DHT22;7323;50.848;4.334;2022-09-09T01:19:09;16.50;98.40
14475;DHT22;7323;50.848;4.334;2022-09-09T01:28:49;16.40;99.10
14475;DHT22;7323;50.848;4.334;2022-09-09T01:34:40;16.40;99.90
14475;DHT22;7323;50.848;4.334;2022-09-09T01:37:12;16.50;99.90
14475;DHT22;7323;50.848;4.334;2022-09-09T01:43:00;16.40;99.90
14475;DHT22;7323;50.848;4.334;2022-09-09T01:45:36;16.50;99.90
14475;DHT22;7323;50.848;4.334;2022-09-09T01:51:36;16.50;99.90
14475;DHT22;7323;50.848;4.334;2022-09-09T02:00:35;16.40;99.90
14475;DHT22;7323;50.848;4.334;2022-09-09T02:03:24;16.50;99.90
14475;DHT22;7323;50.848;4.334;2022-09-09T02:06:27;16.40;99.90
14475;DHT22;7323;50.848;4.334;2022-09-09T02:09:03;16.40;99.90
14475;DHT22;7323;50.848;4.334;2022-09-09T02:15:22;16.40;99.90
14475;DHT22;7323;50.848;4.334;2022-09-09T02:17:52;16.40;99.90
14475;DHT22;7323;50.848;4.334;2022-09-09T02:23:26;16.30;99.90
14475;DHT22;7323;50.848;4.334;2022-09-09T02:25:57;16.40;99.90
14475;DHT22;7323;50.848;4.334;2022-09-09T02:31:47;16.30;99.90
14475;DHT22;7323;50.848;4.334;2022-09-09T02:34:35;16.40;99.90
14475;DHT22;7323;50.848;4.334;2022-09-09T02:37:03;16.30;99.90
14475;DHT22;7323;50.848;4.334;2022-09-09T02:39:37;16.40;99.90
14475;DHT22;7323;50.848;4.334;2022-09-09T02:42:22;16.40;99.90
14475;DHT22;7323;50.848;4.334;2022-09-09T02:44:58;16.40;99.90
14475;DHT22;7323;50.848;4.334;2022-09-09T03:01:08;16.40;99.90
14475;DHT22;7323;50.848;4.334;2022-09-09T03:03:57;16.30;99.90
14475;DHT22;7323;50.848;4.334;2022-09-09T03:06:40;16.40;99.90
14475;DHT22;7323;50.848;4.334;2022-09-09T03:09:15;16.30;99.90
14475;DHT22;7323;50.848;4.334;2022-09-09T03:12:03;16.30;99.90
14475;DHT22;7323;50.848;4.334;2022-09-09T03:14:35;16.30;99.90
14475;DHT22;7323;50.848;4.334;2022-09-09T03:17:09;16.30;99.90
14475;DHT22;7323;50.848;4.334;2022-09-09T03:22:59;16.30;99.90
14475;DHT22;7323;50.848;4.334;2022-09-09T03:25:26;16.30;99.90
14475;DHT22;7323;50.848;4.334;2022-09-09T03:28:13;16.40;99.90
14475;DHT22;7323;50.848;4.334;2022-09-09T03:30:42;16.30;99.90
14475;DHT22;7323;50.848;4.334;2022-09-09T03:33:44;16.40;99.90
14475;DHT22;7323;50.848;4.334;2022-09-09T03:36:47;16.30;99.90
14475;DHT22;7323;50.848;4.334;2022-09-09T03:39:29;16.30;99.90
14475;DHT22;7323;50.848;4.334;2022-09-09T03:42:12;16.30;99.90
14475;DHT22;7323;50.848;4.334;2022-09-09T03:48:05;16.20;99.90
14475;DHT22;7323;50.848;4.334;2022-09-09T03:54:20;16.30;99.90
14475;DHT22;7323;50.848;4.334;2022-09-09T03:57:08;16.30;99.90
14475;DHT22;7323;50.848;4.334;2022-09-09T03:59:36;16.30;99.90
14475;DHT22;7323;50.848;4.334;2022-09-09T04:12:51;16.30;99.90
14475;DHT22;7323;50.848;4.334;2022-09-09T04:19:00;16.30;99.90
14475;DHT22;7323;50.848;4.334;2022-09-09T04:21:36;16.30;99.90
14475;DHT22;7323;50.848;4.334;2022-09-09T04:27:17;16.20;99.90
14475;DHT22;7323;50.848;4.334;2022-09-09T04:29:46;16.30;99.90
14475;DHT22;7323;50.848;4.334;2022-09-09T04:32:26;16.30;99.90
14475;DHT22;7323;50.848;4.334;2022-09-09T04:35:14;16.20;99.90
14475;DHT22;7323;50.848;4.334;2022-09-09T04:38:05;16.30;99.90
14475;DHT22;7323;50.848;4.334;2022-09-09T04:41:02;16.20;99.90
14475;DHT22;7323;50.848;4.334;2022-09-09T04:43:29;16.20;99.90
14475;DHT22;7323;50.848;4.334;2022-09-09T04:49:07;16.20;99.90
14475;DHT22;7323;50.848;4.334;2022-09-09T04:51:36;16.20;99.90
14475;DHT22;7323;50.848;4.334;2022-09-09T04:54:01;16.20;99.90
14475;DHT22;7323;50.848;4.334;2022-09-09T04:56:30;16.30;99.90
14475;DHT22;7323;50.848;4.334;2022-09-09T04:59:18;16.20;99.90
14475;DHT22;7323;50.848;4.334;2022-09-09T05:08:29;16.20;99.90
14475;DHT22;7323;50.848;4.334;2022-09-09T05:14:40;16.20;99.90
14475;DHT22;7323;50.848;4.334;2022-09-09T05:17:09;16.20;99.90
14475;DHT22;7323;50.848;4.334;2022-09-09T05:22:57;16.20;99.90
14475;DHT22;7323;50.848;4.334;2022-09-09T05:25:29;16.20;99.90
14475;DHT22;7323;50.848;4.334;2022-09-09T05:28:01;16.20;99.90
14475;DHT22;7323;50.848;4.334;2022-09-09T05:31:00;16.30;99.90
14475;DHT22;7323;50.848;4.334;2022-09-09T05:33:38;16.30;99.90
14475;DHT22;7323;50.848;4.334;2022-09-09T05:36:24;16.30;99.90
14475;DHT22;7323;50.848;4.334;2022-09-09T05:38:53;16.30;99.90
14475;DHT22;7323;50.848;4.334;2022-09-09T05:41:21;16.30;99.90
14475;DHT22;7323;50.848;4.334;2022-09-09T05:43:51;16.40;99.90
14475;DHT22;7323;50.848;4.334;2022-09-09T05:46:22;16.40;99.90
14475;DHT22;7323;50.848;4.334;2022-09-09T05:49:11;16.40;99.90
14475;DHT22;7323;50.848;4.334;2022-09-09T05:51:37;16.40;99.90
14475;DHT22;7323;50.848;4.334;2022-09-09T05:54:04;16.50;99.90
14475;DHT22;7323;50.848;4.334;2022-09-09T05:56:35;16.50;99.90
14475;DHT22;7323;50.848;4.334;2022-09-09T05:59:20;16.50;99.40
14475;DHT22;7323;50.848;4.334;2022-09-09T06:01:46;16.50;99.60
14475;DHT22;7323;50.848;4.334;2022-09-09T06:04:16;16.50;99.20
14475;DHT22;7323;50.848;4.334;2022-09-09T06:06:50;16.50;98.60
14475;DHT22;7323;50.848;4.334;2022-09-09T06:09:37;16.50;97.50
14475;DHT22;7323;50.848;4.334;2022-09-09T06:12:04;16.60;97.30
14475;DHT22;7323;50.848;4.334;2022-09-09T06:14:36;16.70;96.70
14475;DHT22;7323;50.848;4.334;2022-09-09T06:17:21;16.80;95.60
14475;DHT22;7323;50.848;4.334;2022-09-09T06:19:50;16.80;95.20
14475;DHT22;7323;50.848;4.334;2022-09-09T06:25:47;16.90;93.30
14475;DHT22;7323;50.848;4.334;2022-09-09T06:28:18;16.90;91.90
14475;DHT22;7323;50.848;4.334;2022-09-09T06:30:44;16.90;91.10
14475;DHT22;7323;50.848;4.334;2022-09-09T06:33:37;17.00;90.60
14475;DHT22;7323;50.848;4.334;2022-09-09T06:36:07;17.10;87.70
14475;DHT22;7323;50.848;4.334;2022-09-09T06:38:36;17.10;84.30
14475;DHT22;7323;50.848;4.334;2022-09-09T06:41:07;17.20;85.30
14475;DHT22;7323;50.848;4.334;2022-09-09T06:43:36;17.00;84.90
14475;DHT22;7323;50.848;4.334;2022-09-09T06:46:22;16.90;86.20
14475;DHT22;7323;50.848;4.334;2022-09-09T06:49:04;16.80;89.50
14475;DHT22;7323;50.848;4.334;2022-09-09T06:51:51;16.80;87.60
14475;DHT22;7323;50.848;4.334;2022-09-09T06:54:26;16.90;88.60
14475;DHT22;7323;50.848;4.334;2022-09-09T06:57:22;17.00;87.90
14475;DHT22;7323;50.848;4.334;2022-09-09T07:03:16;16.90;82.70
14475;DHT22;7323;50.848;4.334;2022-09-09T07:05:43;17.00;83.60
14475;DHT22;7323;50.848;4.334;2022-09-09T07:08:18;17.10;84.60
14475;DHT22;7323;50.848;4.334;2022-09-09T07:10:52;17.00;84.40
14475;DHT22;7323;50.848;4.334;2022-09-09T07:13:26;17.10;82.10
14475;DHT22;7323;50.848;4.334;2022-09-09T07:15:52;17.10;82.10
14475;DHT22;7323;50.848;4.334;2022-09-09T07:18:39;17.10;79.50
14475;DHT22;7323;50.848;4.334;2022-09-09T07:21:19;17.10;79.50
14475;DHT22;7323;50.848;4.334;2022-09-09T07:24:04;17.20;78.20
14475;DHT22;7323;50.848;4.334;2022-09-09T07:26:46;17.20;78.20
14475;DHT22;7323;50.848;4.334;2022-09-09T07:29:12;17.30;78.80
14475;DHT22;7323;50.848;4.334;2022-09-09T07:31:48;17.20;78.50
14475;DHT22;7323;50.848;4.334;2022-09-09T07:34:22;17.20;76.20
14475;DHT22;7323;50.848;4.334;2022-09-09T07:36:59;17.30;77.70
14475;DHT22;7323;50.848;4.334;2022-09-09T07:39:24;17.20;77.80
14475;DHT22;7323;50.848;4.334;2022-09-09T07:41:52;17.20;84.30
14475;DHT22;7323;50.848;4.334;2022-09-09T07:44:22;17.00;91.30
14475;DHT22;7323;50.848;4.334;2022-09-09T07:46:53;17.20;93.00
14475;DHT22;7323;50.848;4.334;2022-09-09T07:49:31;17.00;93.00
14475;DHT22;7323;50.848;4.334;2022-09-09T07:52:00;17.10;94.40
14475;DHT22;7323;50.848;4.334;2022-09-09T07:54:27;17.10;94.50
14475;DHT22;7323;50.848;4.334;2022-09-09T07:56:57;17.20;93.70
14475;DHT22;7323;50.848;4.334;2022-09-09T07:59:26;17.30;92.50
14475;DHT22;7323;50.848;4.334;2022-09-09T08:01:56;17.30;92.10
14475;DHT22;7323;50.848;4.334;2022-09-09T08:07:40;17.40;92.80
14475;DHT22;7323;50.848;4.334;2022-09-09T08:10:16;17.50;91.70
14475;DHT22;7323;50.848;4.334;2022-09-09T08:12:43;17.50;90.80
14475;DHT22;7323;50.848;4.334;2022-09-09T08:15:09;17.50;88.70
14475;DHT22;7323;50.848;4.334;2022-09-09T08:17:37;17.60;88.20
14475;DHT22;7323;50.848;4.334;2022-09-09T08:20:04;17.60;86.70
14475;DHT22;7323;50.848;4.334;2022-09-09T08:22:31;17.60;86.30
14475;DHT22;7323;50.848;4.334;2022-09-09T08:24:57;17.60;85.60
14475;DHT22;7323;50.848;4.334;2022-09-09T08:27:25;17.60;86.50
14475;DHT22;7323;50.848;4.334;2022-09-09T08:33:19;17.60;84.60
14475;DHT22;7323;50.848;4.334;2022-09-09T08:35:54;17.60;80.20
14475;DHT22;7323;50.848;4.334;2022-09-09T08:38:20;17.70;82.80
14475;DHT22;7323;50.848;4.334;2022-09-09T08:40:49;17.50;85.50
14475;DHT22;7323;50.848;4.334;2022-09-09T08:43:18;17.60;88.00
14475;DHT22;7323;50.848;4.334;2022-09-09T08:48:52;17.40;92.30
14475;DHT22;7323;50.848;4.334;2022-09-09T08:51:20;17.30;93.00
14475;DHT22;7323;50.848;4.334;2022-09-09T08:53:48;17.30;93.40
14475;DHT22;7323;50.848;4.334;2022-09-09T08:56:21;17.30;94.00
14475;DHT22;7323;50.848;4.334;2022-09-09T08:58:53;17.30;94.40
14475;DHT22;7323;50.848;4.334;2022-09-09T09:13:32;17.30;94.30
14475;DHT22;7323;50.848;4.334;2022-09-09T09:18:54;17.30;94.50
14475;DHT22;7323;50.848;4.334;2022-09-09T09:21:43;17.30;95.20
14475;DHT22;7323;50.848;4.334;2022-09-09T09:27:43;17.30;96.70
14475;DHT22;7323;50.848;4.334;2022-09-09T09:30:18;17.30;97.70
14475;DHT22;7323;50.848;4.334;2022-09-09T09:35:18;17.30;98.80
14475;DHT22;7323;50.848;4.334;2022-09-09T09:37:46;17.40;99.40
14475;DHT22;7323;50.848;4.334;2022-09-09T09:40:19;17.40;98.40
14475;DHT22;7323;50.848;4.334;2022-09-09T09:42:54;17.30;98.10
14475;DHT22;7323;50.848;4.334;2022-09-09T09:45:42;17.30;98.30
14475;DHT22;7323;50.848;4.334;2022-09-09T09:48:13;17.30;99.10
14475;DHT22;7323;50.848;4.334;2022-09-09T09:50:52;17.30;98.80
14475;DHT22;7323;50.848;4.334;2022-09-09T09:56:04;17.50;97.90
14475;DHT22;7323;50.848;4.334;2022-09-09T09:58:47;17.50;97.90
14475;DHT22;7323;50.848;4.334;2022-09-09T10:01:33;17.40;96.80
14475;DHT22;7323;50.848;4.334;2022-09-09T10:04:15;17.40;97.30
14475;DHT22;7323;50.848;4.334;2022-09-09T10:06:46;17.40;97.40
14475;DHT22;7323;50.848;4.334;2022-09-09T10:09:28;17.40;96.80
14475;DHT22;7323;50.848;4.334;2022-09-09T10:20:18;17.60;95.60
14475;DHT22;7323;50.848;4.334;2022-09-09T10:23:02;17.60;93.70
14475;DHT22;7323;50.848;4.334;2022-09-09T10:26:27;17.70;92.70
14475;DHT22;7323;50.848;4.334;2022-09-09T10:28:57;17.70;91.80
14475;DHT22;7323;50.848;4.334;2022-09-09T10:40:11;18.40;78.10
14475;DHT22;7323;50.848;4.334;2022-09-09T10:42:41;18.50;79.20
14475;DHT22;7323;50.848;4.334;2022-09-09T10:45:35;18.70;76.50
14475;DHT22;7323;50.848;4.334;2022-09-09T10:50:52;18.70;69.90
14475;DHT22;7323;50.848;4.334;2022-09-09T10:56:29;19.00;63.50
14475;DHT22;7323;50.848;4.334;2022-09-09T11:08:56;19.00;56.10
14475;DHT22;7323;50.848;4.334;2022-09-09T11:11:39;18.90;60.60
14475;DHT22;7323;50.848;4.334;2022-09-09T11:14:15;18.80;61.20
14475;DHT22;7323;50.848;4.334;2022-09-09T11:16:59;18.90;59.10
14475;DHT22;7323;50.848;4.334;2022-09-09T11:19:42;18.90;58.00
14475;DHT22;7323;50.848;4.334;2022-09-09T11:22:35;18.90;54.40
14475;DHT22;7323;50.848;4.334;2022-09-09T11:25:21;19.00;52.30
14475;DHT22;7323;50.848;4.334;2022-09-09T11:34:24;18.90;58.40
14475;DHT22;7323;50.848;4.334;2022-09-09T11:40:38;18.70;62.10
14475;DHT22;7323;50.848;4.334;2022-09-09T11:43:09;18.70;60.80
14475;DHT22;7323;50.848;4.334;2022-09-09T11:45:39;18.80;59.30
14475;DHT22;7323;50.848;4.334;2022-09-09T11:48:37;18.80;56.70
14475;DHT22;7323;50.848;4.334;2022-09-09T11:56:51;19.00;56.10
14475;DHT22;7323;50.848;4.334;2022-09-09T12:02:36;19.00;55.30
14475;DHT22;7323;50.848;4.334;2022-09-09T12:05:15;18.90;55.80
14475;DHT22;7323;50.848;4.334;2022-09-09T12:08:02;18.80;56.40
14475;DHT22;7323;50.848;4.334;2022-09-09T12:10:34;18.80;57.20
14475;DHT22;7323;50.848;4.334;2022-09-09T12:13:28;18.80;58.00
14475;DHT22;7323;50.848;4.334;2022-09-09T12:16:01;18.90;57.40
14475;DHT22;7323;50.848;4.334;2022-09-09T12:18:37;18.90;59.20
14475;DHT22;7323;50.848;4.334;2022-09-09T12:21:30;18.90;57.70
14475;DHT22;7323;50.848;4.334;2022-09-09T12:24:09;18.90;56.70
14475;DHT22;7323;50.848;4.334;2022-09-09T12:27:05;18.90;58.50
14475;DHT22;7323;50.848;4.334;2022-09-09T12:29:45;19.00;55.80
14475;DHT22;7323;50.848;4.334;2022-09-09T12:32:23;19.00;56.40
14475;DHT22;7323;50.848;4.334;2022-09-09T12:35:00;19.00;53.50
14475;DHT22;7323;50.848;4.334;2022-09-09T12:37:53;19.10;53.10
14475;DHT22;7323;50.848;4.334;2022-09-09T12:40:39;19.20;52.20
14475;DHT22;7323;50.848;4.334;2022-09-09T12:43:42;19.20;46.40
14475;DHT22;7323;50.848;4.334;2022-09-09T12:46:32;19.30;46.80
14475;DHT22;7323;50.848;4.334;2022-09-09T12:49:03;19.40;42.10
14475;DHT22;7323;50.848;4.334;2022-09-09T12:51:32;19.60;41.10
14475;DHT22;7323;50.848;4.334;2022-09-09T12:53:59;19.50;31.80
14475;DHT22;7323;50.848;4.334;2022-09-09T12:56:32;19.40;33.40
14475;DHT22;7323;50.848;4.334;2022-09-09T12:59:24;19.40;32.90
14475;DHT22;7323;50.848;4.334;2022-09-09T13:01:57;19.40;30.90
14475;DHT22;7323;50.848;4.334;2022-09-09T13:04:25;19.50;30.30
14475;DHT22;7323;50.848;4.334;2022-09-09T13:07:06;19.40;32.60
14475;DHT22;7323;50.848;4.334;2022-09-09T13:09:37;19.50;32.70
14475;DHT22;7323;50.848;4.334;2022-09-09T13:12:11;19.60;32.30
14475;DHT22;7323;50.848;4.334;2022-09-09T13:14:54;19.50;32.20
14475;DHT22;7323;50.848;4.334;2022-09-09T13:17:32;19.60;34.90
14475;DHT22;7323;50.848;4.334;2022-09-09T13:20:29;19.70;33.30
14475;DHT22;7323;50.848;4.334;2022-09-09T13:23:00;19.80;31.40
14475;DHT22;7323;50.848;4.334;2022-09-09T13:25:28;19.80;26.00
14475;DHT22;7323;50.848;4.334;2022-09-09T13:28:02;19.80;23.30
14475;DHT22;7323;50.848;4.334;2022-09-09T13:30:36;19.90;23.90
14475;DHT22;7323;50.848;4.334;2022-09-09T13:35:55;20.10;16.70
14475;DHT22;7323;50.848;4.334;2022-09-09T13:38:54;20.10;15.90
14475;DHT22;7323;50.848;4.334;2022-09-09T13:41:26;20.10;8.80
14475;DHT22;7323;50.848;4.334;2022-09-09T13:43:55;20.00;13.00
14475;DHT22;7323;50.848;4.334;2022-09-09T13:46:41;20.00;11.90
14475;DHT22;7323;50.848;4.334;2022-09-09T13:51:44;20.30;7.80
14475;DHT22;7323;50.848;4.334;2022-09-09T13:54:31;20.40;1.00
14475;DHT22;7323;50.848;4.334;2022-09-09T13:57:02;20.40;1.00
14475;DHT22;7323;50.848;4.334;2022-09-09T13:59:34;20.40;1.00
14475;DHT22;7323;50.848;4.334;2022-09-09T14:02:08;20.40;1.00
14475;DHT22;7323;50.848;4.334;2022-09-09T14:04:44;20.40;1.00
14475;DHT22;7323;50.848;4.334;2022-09-09T14:07:15;20.60;1.00
14475;DHT22;7323;50.848;4.334;2022-09-09T14:10:00;20.60;1.00
14475;DHT22;7323;50.848;4.334;2022-09-09T14:12:29;20.70;1.00
14475;DHT22;7323;50.848;4.334;2022-09-09T14:14:56;20.80;1.00
14475;DHT22;7323;50.848;4.334;2022-09-09T14:17:44;20.70;1.00
14475;DHT22;7323;50.848;4.334;2022-09-09T14:20:10;20.60;1.00
14475;DHT22;7323;50.848;4.334;2022-09-09T14:22:44;20.50;1.00
14475;DHT22;7323;50.848;4.334;2022-09-09T14:25:16;20.50;1.00
14475;DHT22;7323;50.848;4.334;2022-09-09T14:27:46;20.40;2.00
14475;DHT22;7323;50.848;4.334;2022-09-09T14:30:16;20.40;1.00
14475;DHT22;7323;50.848;4.334;2022-09-09T14:32:43;20.40;4.50
14475;DHT22;7323;50.848;4.334;2022-09-09T14:35:09;20.50;2.60
14475;DHT22;7323;50.848;4.334;2022-09-09T14:37:41;20.60;1.00
14475;DHT22;7323;50.848;4.334;2022-09-09T14:40:11;20.70;1.00
14475;DHT22;7323;50.848;4.334;2022-09-09T14:42:45;20.90;1.00
14475;DHT22;7323;50.848;4.334;2022-09-09T14:45:12;21.00;1.00
14475;DHT22;7323;50.848;4.334;2022-09-09T14:47:39;21.10;1.00
14475;DHT22;7323;50.848;4.334;2022-09-09T14:50:13;21.10;1.00
14475;DHT22;7323;50.848;4.334;2022-09-09T14:52:41;21.20;1.00
14475;DHT22;7323;50.848;4.334;2022-09-09T14:55:10;21.30;1.00
14475;DHT22;7323;50.848;4.334;2022-09-09T14:57:36;21.00;1.00
14475;DHT22;7323;50.848;4.334;2022-09-09T15:00:07;20.80;1.00
14475;DHT22;7323;50.848;4.334;2022-09-09T15:02:35;20.90;1.00
14475;DHT22;7323;50.848;4.334;2022-09-09T15:05:15;21.00;1.00
14475;DHT22;7323;50.848;4.334;2022-09-09T15:07:42;20.90;1.00
14475;DHT22;7323;50.848;4.334;2022-09-09T15:10:10;20.90;1.00
14475;DHT22;7323;50.848;4.334;2022-09-09T15:12:37;21.00;1.00
14475;DHT22;7323;50.848;4.334;2022-09-09T15:15:04;20.90;1.00
14475;DHT22;7323;50.848;4.334;2022-09-09T15:17:32;20.80;1.00
14475;DHT22;7323;50.848;4.334;2022-09-09T15:19:59;20.80;1.00
14475;DHT22;7323;50.848;4.334;2022-09-09T15:22:26;20.70;1.00
14475;DHT22;7323;50.848;4.334;2022-09-09T15:24:55;20.70;1.00
14475;DHT22;7323;50.848;4.334;2022-09-09T15:27:21;20.80;1.00
14475;DHT22;7323;50.848;4.334;2022-09-09T15:29:48;20.90;1.00
14475;DHT22;7323;50.848;4.334;2022-09-09T15:32:16;20.80;1.00
14475;DHT22;7323;50.848;4.334;2022-09-09T15:34:46;20.70;1.00
14475;DHT22;7323;50.848;4.334;2022-09-09T15:37:24;20.50;1.00
14475;DHT22;7323;50.848;4.334;2022-09-09T15:39:55;20.50;1.00
14475;DHT22;7323;50.848;4.334;2022-09-09T15:42:26;20.50;1.00
14475;DHT22;7323;50.848;4.334;2022-09-09T15:45:13;20.60;1.00
14475;DHT22;7323;50.848;4.334;2022-09-09T15:47:40;20.70;1.00
14475;DHT22;7323;50.848;4.334;2022-09-09T15:50:13;20.90;1.00
14475;DHT22;7323;50.848;4.334;2022-09-09T15:52:41;20.90;1.00
14475;DHT22;7323;50.848;4.334;2022-09-09T15:55:26;20.90;1.00
14475;DHT22;7323;50.848;4.334;2022-09-09T15:57:55;20.70;1.00
14475;DHT22;7323;50.848;4.334;2022-09-09T16:00:29;20.80;1.00
14475;DHT22;7323;50.848;4.334;2022-09-09T16:03:17;20.70;1.00
14475;DHT22;7323;50.848;4.334;2022-09-09T16:05:51;20.70;1.00
14475;DHT22;7323;50.848;4.334;2022-09-09T16:08:30;20.60;1.00
14475;DHT22;7323;50.848;4.334;2022-09-09T16:11:20;20.40;1.00
14475;DHT22;7323;50.848;4.334;2022-09-09T16:13:54;20.40;1.00
14475;DHT22;7323;50.848;4.334;2022-09-09T16:16:35;20.50;1.00
14475;DHT22;7323;50.848;4.334;2022-09-09T16:19:15;20.50;1.00
14475;DHT22;7323;50.848;4.334;2022-09-09T16:21:51;20.40;1.00
14475;DHT22;7323;50.848;4.334;2022-09-09T16:24:21;20.40;1.00
14475;DHT22;7323;50.848;4.334;2022-09-09T16:27:18;20.30;1.00
14475;DHT22;7323;50.848;4.334;2022-09-09T16:33:14;19.70;1.00
14475;DHT22;7323;50.848;4.334;2022-09-09T16:39:08;20.20;1.00
14475;DHT22;7323;50.848;4.334;2022-09-09T16:41:35;20.30;1.00
14475;DHT22;7323;50.848;4.334;2022-09-09T16:44:08;20.70;1.00
14475;DHT22;7323;50.848;4.334;2022-09-09T16:46:42;20.40;1.00
14475;DHT22;7323;50.848;4.334;2022-09-09T16:49:37;20.10;1.00
14475;DHT22;7323;50.848;4.334;2022-09-09T16:52:07;20.00;1.40
14475;DHT22;7323;50.848;4.334;2022-09-09T16:54:45;19.80;10.10
14475;DHT22;7323;50.848;4.334;2022-09-09T16:57:26;19.70;17.30
14475;DHT22;7323;50.848;4.334;2022-09-09T16:59:56;19.70;20.10
14475;DHT22;7323;50.848;4.334;2022-09-09T17:02:25;19.80;26.00
14475;DHT22;7323;50.848;4.334;2022-09-09T17:04:54;19.70;29.40
14475;DHT22;7323;50.848;4.334;2022-09-09T17:07:46;19.70;31.40
14475;DHT22;7323;50.848;4.334;2022-09-09T17:10:18;19.80;33.70
14475;DHT22;7323;50.848;4.334;2022-09-09T17:13:06;19.80;32.90
14475;DHT22;7323;50.848;4.334;2022-09-09T17:18:55;19.70;37.50
14475;DHT22;7323;50.848;4.334;2022-09-09T17:21:33;19.70;37.50
14475;DHT22;7323;50.848;4.334;2022-09-09T17:24:01;19.90;35.60
14475;DHT22;7323;50.848;4.334;2022-09-09T17:26:46;20.00;30.80
14475;DHT22;7323;50.848;4.334;2022-09-09T17:32:35;20.00;8.30
14475;DHT22;7323;50.848;4.334;2022-09-09T17:35:02;20.10;8.40
14475;DHT22;7323;50.848;4.334;2022-09-09T17:37:46;20.00;1.50
14475;DHT22;7323;50.848;4.334;2022-09-09T17:40:12;20.00;1.00
14475;DHT22;7323;50.848;4.334;2022-09-09T17:42:41;19.70;1.00
14475;DHT22;7323;50.848;4.334;2022-09-09T17:45:07;19.60;1.00
14475;DHT22;7323;50.848;4.334;2022-09-09T17:47:33;19.40;1.00
14475;DHT22;7323;50.848;4.334;2022-09-09T17:49:59;19.20;1.00
14475;DHT22;7323;50.848;4.334;2022-09-09T17:52:24;19.10;1.00
14475;DHT22;7323;50.848;4.334;2022-09-09T17:54:52;19.10;1.00
14475;DHT22;7323;50.848;4.334;2022-09-09T17:57:22;18.90;3.60
14475;DHT22;7323;50.848;4.334;2022-09-09T17:59:51;19.10;5.00
14475;DHT22;7323;50.848;4.334;2022-09-09T18:02:23;18.90;5.00
14475;DHT22;7323;50.848;4.334;2022-09-09T18:08:23;18.90;1.90
14475;DHT22;7323;50.848;4.334;2022-09-09T18:10:53;18.80;1.00
14475;DHT22;7323;50.848;4.334;2022-09-09T18:13:20;18.70;4.80
14475;DHT22;7323;50.848;4.334;2022-09-09T18:18:54;18.70;5.20
14475;DHT22;7323;50.848;4.334;2022-09-09T18:21:25;18.70;6.20
14475;DHT22;7323;50.848;4.334;2022-09-09T18:23:55;18.60;10.70
14475;DHT22;7323;50.848;4.334;2022-09-09T18:26:23;18.70;10.10
14475;DHT22;7323;50.848;4.334;2022-09-09T18:28:58;18.80;8.90
14475;DHT22;7323;50.848;4.334;2022-09-09T18:31:27;18.80;9.30
14475;DHT22;7323;50.848;4.334;2022-09-09T18:33:54;18.70;11.90
14475;DHT22;7323;50.848;4.334;2022-09-09T18:36:29;18.70;14.30
14475;DHT22;7323;50.848;4.334;2022-09-09T18:38:57;18.60;16.40
14475;DHT22;7323;50.848;4.334;2022-09-09T18:41:33;18.60;18.50
14475;DHT22;7323;50.848;4.334;2022-09-09T18:44:06;18.60;19.00
14475;DHT22;7323;50.848;4.334;2022-09-09T18:46:48;18.60;22.10
14475;DHT22;7323;50.848;4.334;2022-09-09T18:49:17;18.40;25.40
14475;DHT22;7323;50.848;4.334;2022-09-09T18:52:03;18.50;29.10
14475;DHT22;7323;50.848;4.334;2022-09-09T18:54:31;18.50;30.60
14475;DHT22;7323;50.848;4.334;2022-09-09T18:56:58;18.40;34.70
14475;DHT22;7323;50.848;4.334;2022-09-09T19:09:42;18.20;45.50
14475;DHT22;7323;50.848;4.334;2022-09-09T19:12:26;18.20;47.10
14475;DHT22;7323;50.848;4.334;2022-09-09T19:15:01;18.20;49.80
14475;DHT22;7323;50.848;4.334;2022-09-09T19:17:30;18.00;51.40
14475;DHT22;7323;50.848;4.334;2022-09-09T19:19:57;18.00;51.70
14475;DHT22;7323;50.848;4.334;2022-09-09T19:22:25;18.00;52.40
14475;DHT22;7323;50.848;4.334;2022-09-09T19:24:53;17.90;52.20
14475;DHT22;7323;50.848;4.334;2022-09-09T19:30:42;18.00;53.10
14475;DHT22;7323;50.848;4.334;2022-09-09T19:33:25;18.00;51.60
14475;DHT22;7323;50.848;4.334;2022-09-09T19:36:05;17.90;55.50
14475;DHT22;7323;50.848;4.334;2022-09-09T19:38:54;17.90;54.00
14475;DHT22;7323;50.848;4.334;2022-09-09T19:41:31;17.80;56.00
14475;DHT22;7323;50.848;4.334;2022-09-09T19:47:06;17.80;57.60
14475;DHT22;7323;50.848;4.334;2022-09-09T19:49:33;17.70;60.70
14475;DHT22;7323;50.848;4.334;2022-09-09T19:52:14;17.70;61.10
14475;DHT22;7323;50.848;4.334;2022-09-09T19:54:40;17.70;64.20
14475;DHT22;7323;50.848;4.334;2022-09-09T19:57:06;17.60;61.70
14475;DHT22;7323;50.848;4.334;2022-09-09T19:59:33;17.60;62.90
14475;DHT22;7323;50.848;4.334;2022-09-09T20:02:00;17.40;70.80
14475;DHT22;7323;50.848;4.334;2022-09-09T20:04:26;17.30;73.10
14475;DHT22;7323;50.848;4.334;2022-09-09T20:06:53;17.20;79.10
14475;DHT22;7323;50.848;4.334;2022-09-09T20:09:20;17.20;81.80
14475;DHT22;7323;50.848;4.334;2022-09-09T20:11:48;17.30;86.20
14475;DHT22;7323;50.848;4.334;2022-09-09T20:14:16;17.10;88.20
14475;DHT22;7323;50.848;4.334;2022-09-09T20:16:47;17.10;89.80
14475;DHT22;7323;50.848;4.334;2022-09-09T20:22:36;17.10;92.10
14475;DHT22;7323;50.848;4.334;2022-09-09T20:25:20;17.10;92.10
14475;DHT22;7323;50.848;4.334;2022-09-09T20:27:47;17.10;91.40
14475;DHT22;7323;50.848;4.334;2022-09-09T20:30:15;17.20;92.70
14475;DHT22;7323;50.848;4.334;2022-09-09T20:33:09;17.10;92.60
14475;DHT22;7323;50.848;4.334;2022-09-09T20:35:47;17.00;94.20
14475;DHT22;7323;50.848;4.334;2022-09-09T20:38:16;17.00;95.80
14475;DHT22;7323;50.848;4.334;2022-09-09T20:40:42;16.90;96.50
14475;DHT22;7323;50.848;4.334;2022-09-09T20:43:10;16.90;97.60
14475;DHT22;7323;50.848;4.334;2022-09-09T20:46:01;16.90;98.20
14475;DHT22;7323;50.848;4.334;2022-09-09T20:48:32;16.90;97.70
14475;DHT22;7323;50.848;4.334;2022-09-09T20:51:05;16.90;97.60
14475;DHT22;7323;50.848;4.334;2022-09-09T20:53:32;17.00;96.80
14475;DHT22;7323;50.848;4.334;2022-09-09T20:56:01;17.00;97.70
14475;DHT22;7323;50.848;4.334;2022-09-09T20:58:30;16.90;98.20
14475;DHT22;7323;50.848;4.334;2022-09-09T21:00:57;16.90;98.10
14475;DHT22;7323;50.848;4.334;2022-09-09T21:03:34;16.90;97.80
14475;DHT22;7323;50.848;4.334;2022-09-09T21:06:04;17.00;97.40
14475;DHT22;7323;50.848;4.334;2022-09-09T21:08:30;17.00;97.40
14475;DHT22;7323;50.848;4.334;2022-09-09T21:11:08;17.00;97.60
14475;DHT22;7323;50.848;4.334;2022-09-09T21:13:36;17.00;98.50
14475;DHT22;7323;50.848;4.334;2022-09-09T21:16:16;16.90;98.60